createdAt,value
2017-12-23T00:01:24.467Z,4.96
2017-12-23T00:03:51.960Z,4.98
2017-12-23T00:06:19.428Z,4.99
2017-12-23T00:08:46.897Z,4.98
2017-12-23T00:11:14.376Z,4.97
2017-12-23T00:13:41.855Z,4.97
2017-12-23T00:16:09.414Z,4.96
2017-12-23T00:18:36.877Z,4.98
2017-12-23T00:21:04.361Z,4.96
2017-12-23T00:23:31.832Z,4.96
2017-12-23T00:25:59.294Z,4.96
2017-12-23T00:28:26.824Z,5.06
2017-12-23T00:30:54.289Z,4.97
2017-12-23T00:33:21.805Z,4.96
2017-12-23T00:35:49.268Z,4.97
2017-12-23T00:38:16.758Z,4.99
2017-12-23T00:40:44.228Z,5.02
2017-12-23T00:43:11.688Z,5.00
2017-12-23T00:45:39.175Z,5.00
2017-12-23T00:48:06.657Z,5.03
2017-12-23T00:50:34.141Z,5.03
2017-12-23T00:53:01.604Z,5.02
2017-12-23T00:55:29.093Z,5.02
2017-12-23T00:57:56.560Z,5.05
2017-12-23T01:00:24.024Z,5.02
2017-12-23T01:02:51.509Z,5.03
2017-12-23T01:05:18.972Z,5.01
2017-12-23T01:07:46.440Z,5.00
2017-12-23T01:10:13.921Z,5.01
2017-12-23T01:12:41.389Z,5.01
2017-12-23T01:15:08.852Z,5.01
2017-12-23T01:17:36.369Z,4.99
2017-12-23T01:20:03.832Z,5.01
2017-12-23T01:22:31.312Z,5.05
2017-12-23T01:24:58.797Z,5.01
2017-12-23T01:27:26.260Z,5.00
2017-12-23T01:29:53.729Z,4.99
2017-12-23T01:32:21.211Z,5.00
2017-12-23T01:34:48.680Z,5.00
2017-12-23T01:37:16.148Z,5.02
2017-12-23T01:39:43.637Z,5.00
2017-12-23T01:42:11.100Z,4.99
2017-12-23T01:44:38.560Z,5.10
2017-12-23T01:47:06.048Z,5.05
2017-12-23T01:49:33.512Z,4.99
2017-12-23T01:52:00.976Z,4.97
2017-12-23T01:54:28.464Z,5.07
2017-12-23T01:56:55.936Z,5.02
2017-12-23T01:59:23.413Z,4.99
2017-12-23T02:01:50.892Z,4.98
2017-12-23T02:04:18.356Z,4.95
2017-12-23T02:06:45.840Z,4.99
2017-12-23T02:09:13.397Z,4.99
2017-12-23T02:11:40.884Z,5.05
2017-12-23T02:14:08.356Z,5.14
2017-12-23T02:16:35.842Z,5.04
2017-12-23T02:19:03.321Z,5.11
2017-12-23T02:21:30.800Z,5.10
2017-12-23T02:23:58.268Z,5.08
2017-12-23T02:26:25.749Z,4.99
2017-12-23T02:28:53.216Z,5.01
2017-12-23T02:31:20.704Z,5.00
2017-12-23T02:33:48.180Z,5.07
2017-12-23T02:36:15.673Z,5.09
2017-12-23T02:38:43.196Z,5.03
2017-12-23T02:41:10.688Z,5.14
2017-12-23T02:43:38.212Z,5.10
2017-12-23T02:46:05.693Z,5.10
2017-12-23T02:48:33.996Z,4.98
2017-12-23T02:51:01.477Z,4.94
2017-12-23T02:53:28.945Z,4.95
2017-12-23T02:55:56.429Z,4.98
2017-12-23T02:58:23.896Z,4.98
2017-12-23T03:00:51.377Z,4.95
2017-12-23T03:03:18.844Z,4.96
2017-12-23T03:05:46.324Z,4.93
2017-12-23T03:08:13.793Z,4.93
2017-12-23T03:10:41.276Z,4.93
2017-12-23T03:13:08.829Z,4.92
2017-12-23T03:15:36.309Z,4.92
2017-12-23T03:18:03.773Z,4.91
2017-12-23T03:20:31.256Z,4.92
2017-12-23T03:22:58.725Z,4.93
2017-12-23T03:25:26.205Z,4.96
2017-12-23T03:27:53.669Z,4.93
2017-12-23T03:30:21.145Z,4.93
2017-12-23T03:32:48.607Z,4.91
2017-12-23T03:35:16.089Z,4.98
2017-12-23T03:37:43.552Z,4.93
2017-12-23T03:40:11.033Z,4.91
2017-12-23T03:42:38.496Z,4.93
2017-12-23T03:45:05.993Z,4.92
2017-12-23T03:47:33.457Z,4.91
2017-12-23T03:50:00.945Z,4.96
2017-12-23T03:52:28.420Z,4.90
2017-12-23T03:54:55.900Z,4.88
2017-12-23T03:57:23.361Z,4.86
2017-12-23T03:59:50.836Z,4.86
2017-12-23T04:02:18.296Z,4.87
2017-12-23T04:04:45.781Z,4.88
2017-12-23T04:07:13.286Z,4.86
2017-12-23T04:09:40.768Z,4.85
2017-12-23T04:12:08.230Z,4.85
2017-12-23T04:14:35.721Z,4.93
2017-12-23T04:17:03.188Z,4.89
2017-12-23T04:19:30.671Z,4.91
2017-12-23T04:21:58.135Z,4.92
2017-12-23T04:24:25.596Z,4.97
2017-12-23T04:26:53.078Z,4.96
2017-12-23T04:29:20.548Z,4.97
2017-12-23T04:31:48.033Z,4.95
2017-12-23T04:34:15.507Z,4.93
2017-12-23T04:36:42.991Z,4.94
2017-12-23T04:39:10.476Z,4.99
2017-12-23T04:41:37.956Z,4.94
2017-12-23T04:44:05.420Z,5.07
2017-12-23T04:46:32.904Z,5.07
2017-12-23T04:49:00.369Z,4.97
2017-12-23T04:51:27.849Z,5.09
2017-12-23T04:53:55.320Z,5.05
2017-12-23T04:56:22.800Z,4.99
2017-12-23T04:58:50.285Z,4.99
2017-12-23T05:01:17.769Z,5.05
2017-12-23T05:03:45.233Z,5.01
2017-12-23T05:06:12.701Z,5.00
2017-12-23T05:08:40.184Z,5.02
2017-12-23T05:11:07.656Z,5.01
2017-12-23T05:13:35.139Z,5.02
2017-12-23T05:16:02.688Z,5.10
2017-12-23T05:18:30.182Z,5.04
2017-12-23T05:20:57.653Z,5.02
2017-12-23T05:23:25.137Z,5.03
2017-12-23T05:25:52.600Z,5.12
2017-12-23T05:28:20.096Z,5.09
2017-12-23T05:30:47.571Z,4.98
2017-12-23T05:33:15.049Z,5.02
2017-12-23T05:35:42.517Z,5.05
2017-12-23T05:38:10.107Z,5.03
2017-12-23T05:40:37.584Z,5.02
2017-12-23T05:43:05.073Z,5.02
2017-12-23T05:45:32.540Z,5.01
2017-12-23T05:48:00.021Z,5.06
2017-12-23T05:50:27.488Z,5.07
2017-12-23T05:52:54.970Z,5.03
2017-12-23T05:55:22.432Z,5.09
2017-12-23T05:57:58.197Z,5.06
2017-12-23T06:00:25.660Z,5.09
2017-12-23T06:02:53.136Z,5.10
2017-12-23T06:05:20.602Z,5.02
2017-12-23T06:07:49.072Z,5.07
2017-12-23T06:10:16.544Z,5.04
2017-12-23T06:12:44.028Z,5.08
2017-12-23T06:15:11.508Z,5.07
2017-12-23T06:17:38.988Z,5.06
2017-12-23T06:20:06.457Z,5.04
2017-12-23T06:22:33.936Z,5.05
2017-12-23T06:25:01.409Z,5.06
2017-12-23T06:27:28.900Z,5.04
2017-12-23T06:29:56.374Z,5.11
2017-12-23T06:32:23.852Z,5.09
2017-12-23T06:34:51.314Z,5.09
2017-12-23T06:37:18.795Z,5.12
2017-12-23T06:39:46.268Z,5.13
2017-12-23T06:42:13.748Z,5.14
2017-12-23T06:44:41.221Z,5.14
2017-12-23T06:47:08.700Z,5.15
2017-12-23T06:49:36.194Z,5.16
2017-12-23T06:52:03.754Z,5.14
2017-12-23T06:54:31.220Z,5.16
2017-12-23T06:56:58.792Z,5.17
2017-12-23T06:59:26.269Z,5.17
2017-12-23T07:01:53.816Z,5.21
2017-12-23T07:04:21.292Z,5.25
2017-12-23T07:06:48.812Z,5.21
2017-12-23T07:09:16.284Z,5.27
2017-12-23T07:11:43.768Z,5.20
2017-12-23T07:14:11.237Z,5.25
2017-12-23T07:16:38.834Z,5.19
2017-12-23T07:19:06.300Z,5.16
2017-12-23T07:21:33.780Z,5.17
2017-12-23T07:24:01.245Z,5.24
2017-12-23T07:26:28.808Z,5.21
2017-12-23T07:28:56.278Z,5.21
2017-12-23T07:31:23.744Z,5.21
2017-12-23T07:33:51.225Z,5.23
2017-12-23T07:36:18.698Z,5.23
2017-12-23T07:38:46.179Z,5.27
2017-12-23T07:41:13.644Z,5.24
2017-12-23T07:43:41.122Z,5.26
2017-12-23T07:46:08.593Z,5.30
2017-12-23T07:48:36.076Z,5.35
2017-12-23T07:51:03.628Z,5.34
2017-12-23T07:53:31.132Z,5.41
2017-12-23T07:55:58.602Z,5.39
2017-12-23T07:58:26.083Z,5.44
2017-12-23T08:00:53.569Z,5.46
2017-12-23T08:03:21.052Z,5.44
2017-12-23T08:05:48.517Z,5.48
2017-12-23T08:08:16.004Z,5.52
2017-12-23T08:10:43.473Z,5.52
2017-12-23T08:13:10.957Z,5.50
2017-12-23T08:15:38.425Z,5.50
2017-12-23T08:18:05.913Z,5.56
2017-12-23T08:20:33.381Z,5.59
2017-12-23T08:23:00.859Z,5.62
2017-12-23T08:25:28.328Z,5.71
2017-12-23T08:27:55.818Z,5.56
2017-12-23T08:30:23.289Z,5.68
2017-12-23T08:32:50.845Z,5.70
2017-12-23T08:35:18.316Z,5.70
2017-12-23T08:37:45.797Z,5.67
2017-12-23T08:40:13.263Z,5.65
2017-12-23T08:42:40.745Z,5.67
2017-12-23T08:45:08.213Z,5.69
2017-12-23T08:47:35.696Z,5.66
2017-12-23T08:50:03.177Z,5.85
2017-12-23T08:52:30.649Z,5.81
2017-12-23T08:54:58.140Z,5.80
2017-12-23T08:57:25.609Z,5.94
2017-12-23T08:59:53.092Z,5.90
2017-12-23T09:02:20.643Z,5.95
2017-12-23T09:04:48.139Z,5.86
2017-12-23T09:07:15.652Z,5.95
2017-12-23T09:09:43.133Z,6.08
2017-12-23T09:12:10.616Z,6.00
2017-12-23T09:14:38.290Z,5.96
2017-12-23T09:17:05.757Z,5.94
2017-12-23T09:19:33.241Z,5.92
2017-12-23T09:22:00.806Z,5.85
2017-12-23T09:24:28.291Z,5.80
2017-12-23T09:26:55.756Z,5.89
2017-12-23T09:29:23.236Z,5.84
2017-12-23T09:31:50.782Z,5.80
2017-12-23T09:34:18.284Z,5.89
2017-12-23T09:36:45.764Z,5.81
2017-12-23T09:39:13.248Z,5.83
2017-12-23T09:41:40.713Z,5.90
2017-12-23T09:44:08.197Z,5.93
2017-12-23T09:46:35.661Z,5.94
2017-12-23T09:49:03.149Z,5.90
2017-12-23T09:51:30.624Z,5.89
2017-12-23T09:53:58.163Z,5.99
2017-12-23T09:56:25.637Z,6.00
2017-12-23T09:58:53.281Z,6.11
2017-12-23T10:01:20.744Z,6.01
2017-12-23T10:03:48.414Z,6.01
2017-12-23T10:06:15.904Z,6.01
2017-12-23T10:08:43.385Z,6.08
2017-12-23T10:11:10.860Z,6.12
2017-12-23T10:13:38.354Z,6.20
2017-12-23T10:16:05.828Z,6.27
2017-12-23T10:18:33.312Z,6.25
2017-12-23T10:21:00.777Z,6.22
2017-12-23T10:23:28.256Z,6.20
2017-12-23T10:25:55.729Z,6.15
2017-12-23T10:28:23.214Z,6.16
2017-12-23T10:30:50.696Z,6.13
2017-12-23T10:33:18.171Z,6.24
2017-12-23T10:35:45.664Z,6.16
2017-12-23T10:38:13.141Z,6.32
2017-12-23T10:40:40.620Z,6.47
2017-12-23T10:43:08.084Z,6.49
2017-12-23T10:45:35.596Z,6.47
2017-12-23T10:48:03.073Z,6.52
2017-12-23T10:50:30.572Z,6.65
2017-12-23T10:52:58.043Z,6.71
2017-12-23T10:55:25.521Z,6.62
2017-12-23T10:57:52.988Z,6.66
2017-12-23T11:00:20.469Z,6.58
2017-12-23T11:02:47.932Z,6.68
2017-12-23T11:05:15.412Z,6.63
2017-12-23T11:07:42.872Z,6.78
2017-12-23T11:10:10.356Z,6.95
2017-12-23T11:12:37.829Z,6.88
2017-12-23T11:15:05.308Z,6.97
2017-12-23T11:17:32.776Z,7.16
2017-12-23T11:20:00.256Z,6.89
2017-12-23T11:22:27.734Z,7.13
2017-12-23T11:24:55.221Z,7.12
2017-12-23T11:27:22.684Z,6.79
2017-12-23T11:29:50.167Z,6.96
2017-12-23T11:32:17.648Z,6.84
2017-12-23T11:34:45.135Z,7.11
2017-12-23T11:37:12.608Z,7.07
2017-12-23T11:39:40.097Z,6.97
2017-12-23T11:42:07.560Z,6.80
2017-12-23T11:44:35.057Z,6.92
2017-12-23T11:47:02.537Z,7.17
2017-12-23T11:49:30.053Z,7.09
2017-12-23T11:51:57.555Z,7.06
2017-12-23T11:54:25.117Z,6.90
2017-12-23T11:56:52.577Z,6.93
2017-12-23T11:59:20.056Z,6.91
2017-12-23T12:01:47.521Z,7.10
2017-12-23T12:04:15.007Z,6.93
2017-12-23T12:06:42.472Z,6.86
2017-12-23T12:09:09.952Z,6.96
2017-12-23T12:11:37.413Z,6.73
2017-12-23T12:14:04.963Z,6.69
2017-12-23T12:16:32.381Z,6.78
2017-12-23T12:18:59.865Z,6.88
2017-12-23T12:21:27.338Z,6.76
2017-12-23T12:23:54.813Z,6.77
2017-12-23T12:26:22.264Z,6.69
2017-12-23T12:28:49.741Z,6.80
2017-12-23T12:31:17.197Z,6.97
2017-12-23T12:33:44.673Z,6.88
2017-12-23T12:36:12.129Z,7.24
2017-12-23T12:38:39.604Z,7.23
2017-12-23T12:41:07.060Z,7.37
2017-12-23T12:43:34.532Z,7.74
2017-12-23T12:46:01.988Z,7.55
2017-12-23T12:48:29.464Z,7.28
2017-12-23T12:50:56.916Z,7.05
2017-12-23T12:53:24.369Z,6.94
2017-12-23T12:55:51.845Z,7.00
2017-12-23T12:58:19.297Z,7.15
2017-12-23T13:00:46.920Z,7.10
2017-12-23T13:03:14.624Z,7.06
2017-12-23T13:05:42.093Z,7.09
2017-12-23T13:08:09.553Z,6.87
2017-12-23T13:10:37.020Z,6.78
2017-12-23T13:13:04.481Z,6.90
2017-12-23T13:15:31.972Z,6.98
2017-12-23T13:17:59.454Z,6.96
2017-12-23T13:20:26.913Z,6.96
2017-12-23T13:22:54.393Z,7.11
2017-12-23T13:25:21.853Z,6.91
2017-12-23T13:27:49.325Z,6.94
2017-12-23T13:30:16.781Z,6.98
2017-12-23T13:32:44.252Z,7.12
2017-12-23T13:35:11.705Z,7.20
2017-12-23T13:37:39.180Z,7.37
2017-12-23T13:40:06.632Z,7.11
2017-12-23T13:42:34.109Z,7.04
2017-12-23T13:45:01.568Z,6.91
2017-12-23T13:47:29.040Z,6.88
2017-12-23T13:49:56.497Z,6.84
2017-12-23T13:52:23.973Z,6.85
2017-12-23T13:54:51.432Z,6.77
2017-12-23T13:57:18.909Z,6.83
2017-12-23T13:59:46.364Z,6.77
2017-12-23T14:02:13.845Z,6.67
2017-12-23T14:04:41.300Z,6.59
2017-12-23T14:07:08.781Z,6.49
2017-12-23T14:09:36.245Z,6.47
2017-12-23T14:12:03.721Z,6.57
2017-12-23T14:14:31.186Z,6.53
2017-12-23T14:16:59.608Z,6.53
2017-12-23T14:19:27.064Z,6.49
2017-12-23T14:21:54.548Z,6.52
2017-12-23T14:24:22.009Z,6.56
2017-12-23T14:26:49.484Z,6.58
2017-12-23T14:29:16.941Z,6.58
2017-12-23T14:31:44.413Z,6.57
2017-12-23T14:34:11.885Z,6.48
2017-12-23T14:36:39.714Z,6.40
2017-12-23T14:39:07.177Z,6.31
2017-12-23T14:41:34.649Z,6.28
2017-12-23T14:44:02.109Z,6.22
2017-12-23T14:46:29.581Z,6.16
2017-12-23T14:48:57.124Z,6.07
2017-12-23T14:51:24.669Z,6.06
2017-12-23T14:53:52.146Z,6.00
2017-12-23T14:56:19.609Z,6.00
2017-12-23T14:58:47.080Z,6.00
2017-12-23T15:01:14.541Z,5.98
2017-12-23T15:03:42.012Z,5.89
2017-12-23T15:06:09.468Z,5.77
2017-12-23T15:08:36.949Z,5.62
2017-12-23T15:11:04.413Z,5.59
2017-12-23T15:13:31.891Z,5.47
2017-12-23T15:15:59.405Z,5.43
2017-12-23T15:18:26.921Z,5.31
2017-12-23T15:20:54.378Z,5.33
2017-12-23T15:23:21.888Z,5.21
2017-12-23T15:25:49.341Z,5.13
2017-12-23T15:28:17.817Z,5.14
2017-12-23T15:30:45.273Z,5.11
2017-12-23T15:33:12.749Z,5.04
2017-12-23T15:35:40.214Z,5.03
2017-12-23T15:38:07.688Z,4.96
2017-12-23T15:40:35.148Z,4.89
2017-12-23T15:43:02.652Z,4.93
2017-12-23T15:45:30.107Z,4.89
2017-12-23T15:47:57.589Z,4.84
2017-12-23T15:50:28.895Z,4.77
2017-12-23T15:52:56.376Z,4.81
2017-12-23T15:55:23.841Z,4.80
2017-12-23T15:57:51.313Z,4.72
2017-12-23T16:00:18.769Z,4.72
2017-12-23T16:02:46.247Z,4.66
2017-12-23T16:05:13.708Z,4.57
2017-12-23T16:07:41.193Z,4.63
2017-12-23T16:10:08.656Z,4.66
2017-12-23T16:12:36.144Z,4.56
2017-12-23T16:15:03.609Z,4.53
2017-12-23T16:17:31.097Z,4.55
2017-12-23T16:19:58.563Z,4.43
2017-12-23T16:22:26.044Z,4.43
2017-12-23T16:24:53.509Z,4.41
2017-12-23T16:27:20.998Z,4.40
2017-12-23T16:29:48.463Z,4.52
2017-12-23T16:32:15.949Z,4.38
2017-12-23T16:34:43.412Z,4.36
2017-12-23T16:37:10.892Z,4.34
2017-12-23T16:39:38.404Z,4.30
2017-12-23T16:42:05.887Z,4.34
2017-12-23T16:44:33.395Z,4.29
2017-12-23T16:47:00.888Z,4.23
2017-12-23T16:49:28.420Z,4.22
2017-12-23T16:51:55.980Z,4.23
2017-12-23T16:54:23.508Z,4.23
2017-12-23T16:56:51.045Z,4.15
2017-12-23T16:59:18.609Z,4.14
2017-12-23T17:01:46.121Z,4.14
2017-12-23T17:04:13.700Z,4.17
2017-12-23T17:06:41.287Z,4.31
2017-12-23T17:09:08.836Z,4.32
2017-12-23T17:11:36.361Z,4.35
2017-12-23T17:14:03.917Z,4.35
2017-12-23T17:16:31.442Z,4.35
2017-12-23T17:18:58.924Z,4.31
2017-12-23T17:21:26.420Z,4.33
2017-12-23T17:23:54.080Z,4.35
2017-12-23T17:26:21.779Z,4.39
2017-12-23T17:29:01.066Z,4.39
2017-12-23T17:31:28.528Z,4.54
2017-12-23T17:33:56.021Z,4.60
2017-12-23T17:36:23.485Z,4.54
2017-12-23T17:38:51.087Z,4.55
2017-12-23T17:41:18.557Z,4.51
2017-12-23T17:43:46.041Z,4.49
2017-12-23T17:46:13.505Z,4.43
2017-12-23T17:48:41.129Z,4.39
2017-12-23T17:51:08.592Z,4.48
2017-12-23T17:53:36.072Z,4.36
2017-12-23T17:56:03.541Z,4.35
2017-12-23T17:58:31.027Z,4.36
2017-12-23T18:00:58.501Z,4.30
2017-12-23T18:03:25.981Z,4.27
2017-12-23T18:05:53.444Z,4.26
2017-12-23T18:08:20.941Z,4.25
2017-12-23T18:10:48.405Z,4.23
2017-12-23T18:13:15.885Z,4.25
2017-12-23T18:15:43.349Z,4.20
2017-12-23T18:18:10.840Z,4.20
2017-12-23T18:20:38.309Z,4.13
2017-12-23T18:23:05.808Z,4.06
2017-12-23T18:25:33.273Z,4.01
2017-12-23T18:28:00.754Z,4.02
2017-12-23T18:30:28.220Z,4.02
2017-12-23T18:32:55.705Z,3.92
2017-12-23T18:35:23.173Z,3.83
2017-12-23T18:37:50.657Z,3.92
2017-12-23T18:40:18.117Z,3.89
2017-12-23T18:42:45.596Z,3.92
2017-12-23T18:45:13.060Z,3.94
2017-12-23T18:47:40.540Z,3.87
2017-12-23T18:50:08.013Z,3.89
2017-12-23T18:52:35.496Z,3.89
2017-12-23T18:55:03.024Z,3.86
2017-12-23T18:57:30.504Z,3.95
2017-12-23T18:59:57.973Z,3.92
2017-12-23T19:02:25.443Z,3.96
2017-12-23T19:04:52.955Z,4.03
2017-12-23T19:07:20.417Z,4.17
2017-12-23T19:09:47.916Z,4.24
2017-12-23T19:12:15.381Z,4.31
2017-12-23T19:14:42.860Z,4.33
2017-12-23T19:17:10.330Z,4.36
2017-12-23T19:19:37.818Z,4.37
2017-12-23T19:22:05.320Z,4.37
2017-12-23T19:24:32.804Z,4.37
2017-12-23T19:27:00.274Z,4.38
2017-12-23T19:29:27.768Z,4.37
2017-12-23T19:31:55.232Z,4.43
2017-12-23T19:34:22.713Z,4.38
2017-12-23T19:36:50.178Z,4.45
2017-12-23T19:39:17.668Z,4.49
2017-12-23T19:41:45.133Z,4.47
2017-12-23T19:44:12.621Z,4.48
2017-12-23T19:46:40.085Z,4.51
2017-12-23T19:49:07.600Z,4.51
2017-12-23T19:51:35.069Z,4.50
2017-12-23T19:54:02.557Z,4.47
2017-12-23T19:56:30.024Z,4.48
2017-12-23T19:58:57.505Z,4.47
2017-12-23T20:01:24.972Z,4.47
2017-12-23T20:03:52.576Z,4.47
2017-12-23T20:06:20.041Z,4.47
2017-12-23T20:08:47.525Z,4.41
2017-12-23T20:11:14.993Z,4.40
2017-12-23T20:13:42.475Z,4.40
2017-12-23T20:16:09.941Z,4.35
2017-12-23T20:18:37.422Z,4.32
2017-12-23T20:21:04.900Z,4.29
2017-12-23T20:23:32.392Z,4.28
2017-12-23T20:25:59.856Z,4.26
2017-12-23T20:28:27.340Z,4.24
2017-12-23T20:30:54.803Z,4.20
2017-12-23T20:33:22.269Z,4.26
2017-12-23T20:35:49.747Z,4.22
2017-12-23T20:38:17.213Z,4.17
2017-12-23T20:40:44.700Z,4.14
2017-12-23T20:43:12.169Z,4.16
2017-12-23T20:45:39.649Z,4.14
2017-12-23T20:48:07.114Z,4.14
2017-12-23T20:50:34.596Z,4.12
2017-12-23T20:53:02.061Z,4.13
2017-12-23T20:55:29.629Z,4.17
2017-12-23T20:57:57.149Z,4.17
2017-12-23T21:00:24.629Z,4.14
2017-12-23T21:02:52.089Z,4.13
2017-12-23T21:05:19.571Z,4.11
2017-12-23T21:07:47.049Z,4.11
2017-12-23T21:10:14.528Z,4.09
2017-12-23T21:12:41.988Z,4.08
2017-12-23T21:15:09.472Z,4.08
2017-12-23T21:17:36.941Z,4.10
2017-12-23T21:20:04.425Z,4.09
2017-12-23T21:22:31.900Z,4.11
2017-12-23T21:24:59.396Z,4.05
2017-12-23T21:27:26.864Z,4.04
2017-12-23T21:29:54.352Z,4.03
2017-12-23T21:32:21.821Z,4.02
2017-12-23T21:34:49.300Z,4.01
2017-12-23T21:37:16.772Z,3.99
2017-12-23T21:39:44.257Z,3.99
2017-12-23T21:42:11.724Z,3.96
2017-12-23T21:44:39.200Z,3.96
2017-12-23T21:47:06.672Z,3.97
2017-12-23T21:49:34.158Z,3.98
2017-12-23T21:52:01.624Z,3.98
2017-12-23T21:54:29.114Z,3.96
2017-12-23T21:56:56.577Z,3.97
2017-12-23T21:59:24.162Z,3.95
2017-12-23T22:01:51.629Z,3.92
2017-12-23T22:04:19.117Z,3.93
2017-12-23T22:06:46.585Z,3.99
2017-12-23T22:09:14.093Z,3.93
2017-12-23T22:11:41.564Z,3.89
2017-12-23T22:14:09.048Z,3.93
2017-12-23T22:16:36.520Z,3.90
2017-12-23T22:19:04.001Z,3.94
2017-12-23T22:21:31.506Z,3.93
2017-12-23T22:23:58.978Z,3.93
2017-12-23T22:26:26.461Z,3.93
2017-12-23T22:28:54.367Z,3.94
2017-12-23T22:31:21.849Z,3.96
2017-12-23T22:33:49.312Z,3.93
2017-12-23T22:36:16.794Z,3.93
2017-12-23T22:38:44.266Z,3.98
2017-12-23T22:41:11.746Z,3.93
2017-12-23T22:43:39.209Z,3.97
2017-12-23T22:46:06.701Z,3.92
2017-12-23T22:48:34.185Z,4.01
2017-12-23T22:51:01.664Z,3.94
2017-12-23T22:53:29.129Z,3.93
2017-12-23T22:55:56.615Z,3.94
2017-12-23T22:58:24.081Z,3.94
2017-12-23T23:00:56.193Z,3.96
2017-12-23T23:03:23.657Z,3.98
2017-12-23T23:05:51.138Z,3.94
2017-12-23T23:08:18.604Z,3.93
2017-12-23T23:10:46.092Z,3.93
2017-12-23T23:13:13.552Z,3.98
2017-12-23T23:15:41.037Z,3.93
2017-12-23T23:18:08.501Z,3.92
2017-12-23T23:20:35.981Z,3.96
2017-12-23T23:23:03.443Z,4.00
2017-12-23T23:25:30.924Z,3.95
2017-12-23T23:27:58.389Z,3.91
2017-12-23T23:30:25.873Z,3.90
2017-12-23T23:32:53.336Z,3.92
2017-12-23T23:35:20.825Z,3.94
2017-12-23T23:37:48.297Z,3.95
2017-12-23T23:40:15.776Z,3.99
2017-12-23T23:42:43.240Z,3.90
2017-12-23T23:45:10.720Z,3.92
2017-12-23T23:47:38.185Z,3.93
2017-12-23T23:50:05.670Z,3.88
2017-12-23T23:52:33.140Z,3.87
2017-12-23T23:55:00.636Z,3.90
2017-12-23T23:57:28.101Z,3.87
2017-12-23T23:59:55.613Z,3.90
